This is the latest recevied weather packets stored in our database for station/object VE2XOX. If no packets are shown the sender has not sent any weather packets the latest 10 day(s).
| Time | Temp. | Humidity | Pressure | Rain* | Wind** | Luminosity | Snow |
|---|---|---|---|---|---|---|---|
| 1778033722 | 12.78° C | 89% | 1002.4 hPa | 3.05 mm | - | - | - |
| 1778033435 | 12.78° C | 89% | 1002.3 hPa | 3.05 mm | - | - | - |
| 1778033123 | 12.78° C | 89% | 1002.3 hPa | 4.06 mm | - | - | - |
| 1778032828 | 12.78° C | 89% | 1002.4 hPa | 4.06 mm | - | - | - |
| 1778032228 | 12.78° C | 89% | 1002.2 hPa | 5.08 mm | - | - | - |
| 1778031333 | 13.33° C | 87% | 1002.6 hPa | 4.06 mm | - | - | - |
| 1778031016 | 13.33° C | 87% | 1002.4 hPa | 3.05 mm | - | - | - |
| 1778030723 | 13.33° C | 86% | 1002.3 hPa | 3.05 mm | - | - | - |
| 1778030432 | 13.33° C | 86% | 1002.1 hPa | 2.03 mm | - | - | - |
| 1778030114 | 13.89° C | 85% | 1002 hPa | 2.03 mm | - | - | - |
| 1778029534 | 13.89° C | 86% | 1001.9 hPa | 1.02 mm | - | - | - |
| 1778027720 | 14.44° C | 90% | 1001.2 hPa | 6.1 mm | - | - | - |
| 1778027429 | 14.44° C | 90% | 1001 hPa | 7.11 mm | - | - | - |
| 1778027115 | 14.44° C | 90% | 1001.1 hPa | 7.11 mm | - | - | - |
| 1778026534 | 14.44° C | 90% | 1000.9 hPa | 7.11 mm | - | - | - |
| 1778026218 | 14.44° C | 90% | 1001 hPa | 7.11 mm | - | - | - |
| 1778025634 | 14.44° C | 89% | 1001 hPa | 7.11 mm | - | - | - |
| 1778025321 | 14.44° C | 89% | 1000.8 hPa | 7.11 mm | - | - | - |
| 1778025027 | 14.44° C | 89% | 1000.7 hPa | 6.1 mm | - | - | - |
| 1778023529 | 15° C | 87% | 1000.3 hPa | 1.02 mm | - | - | - |
| 1778021418 | 15° C | 86% | 999.6 hPa | 1.02 mm | - | - | - |
| 1778015116 | 19.44° C | 70% | 997.2 hPa | 1.02 mm | - | - | - |
| 1778012114 | 20° C | 71% | 996.4 hPa | 0 mm | - | - | - |
| 1778011824 | 19.44° C | 74% | 996.5 hPa | 0 mm | - | - | - |
| 1778011212 | 19.44° C | 77% | 996.5 hPa | 0 mm | - | - | - |
* Rain latest hour (hover to see other rain measurements)
** Current wind speed in m/s (hover to see current wind gust speed)